KSHV/SHV METAR and TAF weather

Enter ICAO airport designator
Station Type Date Time Source
KSHV METAR 2020/01/18 15:56 UTC NOAA

KSHV 181556Z 21006KT 10SM BKN009 OVC017 19/18 A3015 RMK AO2 CIG 007V013 SLP206 T01940183 $


Station Type Date Time Source
KSHV Decoded METAR 2020/01/18 15:56 UTC NOAA

SHREVEPORT REGIONAL AIRPORT, LA, United States (KSHV) 32-27N 93-50W 80M
Jan 18, 2020 - 10:56 AM EST / 2020.01.18 1556 UTC
Wind: from the SSW (210 degrees) at 7 MPH (6 KT):0
Visibility: 10 mile(s):0
Sky conditions: overcast
Temperature: 66.9 F (19.4 C)
Dew Point: 64.9 F (18.3 C)
Relative Humidity: 93%
Pressure (altimeter): 30.15 in. Hg (1020 hPa)
ob: KSHV 181556Z 21006KT 10SM BKN009 OVC017 19/18 A3015 RMK AO2 CIG 007V013 SLP206 T01940183
cycle: 16

Station Type Date Time Source
KSHV TAF 2020/01/18 12:42 UTC NOAA

TAF KSHV 181140Z 1812/1912 18009KT P6SM VCSH BKN005 OVC015
TEMPO 1812/1815 5SM -SHRA BR OVC005
FM181500 25010KT 6SM -SHRA BR OVC007
FM181800 33015G24KT P6SM BKN025
FM190000 36012KT P6SM SKC

Example: see airport list